OIMB  Birjand  Airport

Birjand, Iran

Add Bookmark
ICAO OIMB
Type Airport
Status Operational
Latitude
32° 53' 53" N
32.898102
Longitude
59° 15' 57" E
59.266102
Local (GMT +4.5 ) UTC
Aug 24, 2016 08:39 pm Aug 24, 2016 16:09
Sunrise-Sunset Local UTC
Begin Civil Twilight 05:35 am 01:05
Sunrise 06:01 am 01:31
Sunset 07:08 pm 14:38
End Civil Twilight 07:34 pm 15:04
VFR
VFR
MVFR
MVFR
IFR
IFR
LIFR
LIFR
Unknown
Unavailable

Current Weather

METAR Observed VFR
OIMB 241500Z 02010KT CAVOK 26/M15 Q1015 Wed, Aug 24, 2016 @ 15:00 UTC
(1 Hour, 9 Minutes ago)
Visual Flight Rules
Wind Visibility Conditions
020° at 10 knots (19 kph) 10 km or more
  • No significant weather
Temperatures Readings Precipitation
Current Temp
26°C
79°F
Dewpoint
-15°C
5°F
Humidity 6%
Altimeter 29.97" Hg
Sea Level Pressure 1,015 mb
Field Elevation
1,491 m
4,892 ft
None Recorded
-
-

CheckWX.com is intended as a tool to help pilots better visualize weather data. It is not intended as a substitute for an official weather briefing obtained from a Flight Service Station. CheckWX.com does not meet the FAA requirements for an official pre-flight weather briefing. Therefore, it's important that pilots still call and obtain an official FSS pre-flight weather briefing.

© 2007-2016 CheckWX.com
16:09:49 UTC